Flight Track Log - Related Links

Times and Time Zones

All times are in EST time to prevent confusion due to time zone crossing. See the SWA149 flight status page for this flight to view local times or setup timezone preferences in your user account.

Time Position Orientation Groundspeed Altitude Reporting Facility
EST Latitude Longitude Course Direction KTS MPH feet Rate Location/Type
Fri 04:06:06 PM 40.4439 -80.3225 193° South 214 246 7,000  Level Cleveland Center
Fri 04:07:08 PM 40.3692 -80.3167 177° South 263 303 10,800 3,532 Climbing Cleveland Center
Fri 04:08:10 PM 40.2875 -80.3061 174° South 306 352 14,300 3,484 Climbing Cleveland Center
Fri 04:09:12 PM 40.1742 -80.2947 176° South 342 394 18,000 3,435 Climbing Cleveland Center
Fri 04:10:00 PM 39.8513 -80.2986 180° South  Level Estimated
Fri 04:10:14 PM 40.0719 -80.2786 173° South 367 422 21,400  Level Cleveland Center
Fri 04:11:00 PM 39.7422 -80.3097 193° South  Level Estimated
Fri 04:11:15 PM 39.9675 -80.2594 172° South 379 436 24,000  Level Cleveland Center
Fri 04:12:17 PM 39.8603 -80.2372 171° South 390 449 24,000  Level Cleveland Center
Fri 04:13:19 PM 39.7544 -80.2158 171° South 387 445 24,000  Level Cleveland Center
Fri 04:14:21 PM 39.6478 -80.1944 171° South 387 445 24,000 774 Level Cleveland Center
Fri 04:15:23 PM 39.5178 -80.1675 171° South 395 455 25,600 1,790 Climbing Cleveland Center
Fri 04:16:25 PM 39.4022 -80.1608 177° South 412 474 27,700 2,032 Climbing Cleveland Center
Fri 04:17:27 PM 39.2883 -80.1928 192° South 417 480 29,800 2,244 Climbing Cleveland Center
Fri 04:18:28 PM 39.1719 -80.2208 191° South 422 486 32,300 2,634 Climbing Cleveland Center
Fri 04:19:30 PM 39.0600 -80.2458 190° South 415 478 35,200 2,419 Climbing Cleveland Center
Fri 04:20:32 PM 38.9539 -80.2756 192° South 398 458 37,300 1,694 Climbing Cleveland Center
Fri 04:21:34 PM 38.8269 -80.3061 191° South 389 448 38,700 1,306 Climbing Cleveland Center
Fri 04:22:36 PM 38.7186 -80.3317 190° South 393 452 40,000 629 Climbing Cleveland Center
Fri 04:23:38 PM 38.6114 -80.3586 191° South 393 452 40,000  Level Cleveland Center
Fri 04:24:39 PM 38.5058 -80.3819 190° South 388 447 40,000  Level Cleveland Center
Fri 04:25:41 PM 38.4000 -80.4072 191° South 387 445 40,000  Level Cleveland Center
Fri 04:26:45 PM 38.2900 -80.4411 194° South 391 450 40,000  Level Washington Center
Fri 04:27:45 PM 38.1722 -80.4678 190° South 391 450 40,000  Level Washington Center
Fri 04:28:46 PM 38.0669 -80.4925 190° South 391 450 40,000  Level Washington Center
Fri 04:29:44 PM 37.9597 -80.5144 189° South 391 450 40,000  Level Washington Center
Fri 04:30:44 PM 37.8486 -80.5256 185° South 397 457 40,000  Level Washington Center
Fri 04:31:43 PM 37.7478 -80.5400 186° South 397 457 40,000  Level Washington Center
Fri 04:34:03 PM 37.4875 -80.5711 185° South 415 478 40,000  Level Atlanta Center
Fri 04:35:03 PM 37.3775 -80.5839 185° South 410 472 40,000  Level Atlanta Center
Fri 04:36:03 PM 37.2653 -80.5992 186° South 410 472 40,000  Level Atlanta Center
Fri 04:37:03 PM 37.1553 -80.6119 185° South 405 466 40,000  Level Atlanta Center
Fri 04:38:03 PM 37.0347 -80.6250 185° South 405 466 40,000  Level Atlanta Center
Fri 04:39:03 PM 36.9225 -80.6400 186° South 405 466 40,000  Level Atlanta Center
Fri 04:40:03 PM 36.8144 -80.6550 186° South 405 466 40,000  Level Atlanta Center
Fri 04:41:03 PM 36.7189 -80.6617 183° South 399 459 40,000  Level Atlanta Center
Fri 04:42:03 PM 36.6086 -80.6742 185° South 399 459 40,000  Level Atlanta Center
Fri 04:43:03 PM 36.5028 -80.6917 188° South 399 459 40,000  Level Atlanta Center
Fri 04:44:03 PM 36.3947 -80.7039 185° South 399 459 40,000  Level Atlanta Center
Fri 04:45:03 PM 36.2844 -80.7161 185° South 399 459 40,000  Level Atlanta Center
Fri 04:46:03 PM 36.1722 -80.7311 186° South 405 466 40,000  Level Atlanta Center
Fri 04:47:03 PM 36.0661 -80.7456 186° South 405 466 40,000  Level Atlanta Center
Fri 04:48:03 PM 35.9558 -80.7553 184° South 400 460 40,000  Level Atlanta Center
Fri 04:49:03 PM 35.8458 -80.7700 186° South 405 466 40,000  Level Atlanta Center
Fri 04:50:03 PM 35.7333 -80.7819 185° South 405 466 40,000  Level Atlanta Center
Fri 04:51:03 PM 35.6233 -80.7967 186° South 405 466 40,000  Level Atlanta Center
Fri 04:52:03 PM 35.5131 -80.8086 185° South 405 466 40,000  Level Atlanta Center
Fri 04:53:03 PM 35.4028 -80.8233 186° South 405 466 40,000  Level Atlanta Center
Fri 04:54:03 PM 35.2925 -80.8378 186° South 405 466 40,000  Level Atlanta Center
Fri 04:55:03 PM 35.1822 -80.8497 185° South 405 466 40,000  Level Atlanta Center
Fri 04:57:09 PM 34.9386 -80.8819 186° South 385 443 40,000  Level Jacksonville Center
Fri 04:58:09 PM 34.8261 -80.8922 184° South 398 458 40,000  Level Jacksonville Center
Fri 04:59:09 PM 34.7117 -80.9125 188° South 408 470 40,000  Level Jacksonville Center
Fri 05:00:09 PM 34.6033 -80.9125 180° South 408 470 40,000  Level Jacksonville Center
Fri 05:01:09 PM 34.4825 -80.9303 187° South 408 470 40,000  Level Jacksonville Center
Fri 05:02:09 PM 34.3658 -80.9306 180° South 413 475 40,000  Level Jacksonville Center
Fri 05:03:09 PM 34.2508 -80.9306 180° South 426 490 40,000  Level Jacksonville Center
Fri 05:04:09 PM 34.1322 -80.9383 183° South 421 484 40,000  Level Jacksonville Center
Fri 05:05:09 PM 34.0153 -80.9408 181° South 421 484 40,000  Level Jacksonville Center
Fri 05:06:09 PM 33.8967 -80.9486 183° South 421 484 40,000  Level Jacksonville Center
Fri 05:07:09 PM 33.7881 -80.9508 181° South 426 490 40,000  Level Jacksonville Center
Fri 05:08:09 PM 33.6692 -80.9536 181° South 426 490 40,000  Level Jacksonville Center
Fri 05:09:09 PM 33.5525 -80.9611 183° South 426 490 40,000  Level Jacksonville Center
Fri 05:10:09 PM 33.4336 -80.9636 181° South 426 490 40,000  Level Jacksonville Center
Fri 05:11:09 PM 33.3125 -80.9689 182° South 426 490 40,000  Level Jacksonville Center
Fri 05:12:09 PM 33.1936 -80.9739 182° South 426 490 40,000  Level Jacksonville Center
Fri 05:13:09 PM 33.0747 -80.9764 181° South 426 490 40,000  Level Jacksonville Center
Fri 05:14:09 PM 32.9536 -80.9814 182° South 431 496 40,000  Level Jacksonville Center
Fri 05:15:09 PM 32.8328 -80.9864 182° South 436 502 40,000  Level Jacksonville Center
Fri 05:16:09 PM 32.7097 -80.9914 182° South 441 507 40,000  Level Jacksonville Center
Fri 05:17:09 PM 32.5867 -80.9967 182° South 441 507 40,000  Level Jacksonville Center
Fri 05:18:09 PM 32.4633 -80.9992 181° South 441 507 40,000  Level Jacksonville Center
Fri 05:19:10 PM 32.3342 -81.0067 183° South 421 484 40,000  Level Jacksonville Center
Fri 05:20:09 PM 32.2172 -81.0092 181° South 428 493 40,000  Level Jacksonville Center
Fri 05:21:09 PM 32.1067 -81.0089 180° South 433 498 40,000 -950 Level Jacksonville Center
Fri 05:22:09 PM 31.9731 -81.0167 183° South 439 505 38,100 -1,000 Descending Jacksonville Center
Fri 05:23:09 PM 31.8564 -81.0214 182° South 433 498 38,000 -50 Descending Jacksonville Center
Fri 05:24:09 PM 31.7497 -81.0261 182° South 427 491 38,000  Level Jacksonville Center
Fri 05:25:09 PM 31.6183 -81.0311 182° South 427 491 38,000  Level Jacksonville Center
Fri 05:26:09 PM 31.5139 -81.0333 181° South 427 491 38,000  Level Jacksonville Center
Fri 05:27:09 PM 31.3825 -81.0383 182° South 422 486 38,000  Level Jacksonville Center
Fri 05:28:09 PM 31.2636 -81.0456 183° South 429 494 38,000  Level Jacksonville Center
Fri 05:29:09 PM 31.1447 -81.0503 182° South 429 494 38,000  Level Jacksonville Center
Fri 05:30:09 PM 31.0258 -81.0525 181° South 429 494 38,000  Level Jacksonville Center
Fri 05:31:09 PM 30.9067 -81.0572 182° South 429 494 38,000 -400 Level Jacksonville Center
Fri 05:32:09 PM 30.7836 -81.0619 182° South 429 494 37,200 -843 Descending Jacksonville Center
Fri 05:33:10 PM 30.6689 -81.0667 182° South 429 494 36,300 -950 Descending Jacksonville Center
Fri 05:34:09 PM 30.5500 -81.0689 181° South 429 494 35,300 -1,160 Descending Jacksonville Center
Fri 05:35:09 PM 30.4269 -81.0736 182° South 429 494 34,000 -650 Descending Jacksonville Center
Fri 05:36:09 PM 30.3036 -81.0786 182° South 440 506 34,000  Level Jacksonville Center
Fri 05:37:10 PM 30.1847 -81.0831 182° South 440 506 34,000  Level Jacksonville Center
Fri 05:38:09 PM 30.0594 -81.0856 181° South 440 506 34,000 -252 Level Jacksonville Center
Fri 05:39:09 PM 29.9364 -81.0925 183° South 440 506 33,500 -1,636 Descending Jacksonville Center
Fri 05:40:10 PM 29.8406 -81.0967 182° South 440 506 30,700 -3,000 Descending Jacksonville Center
Fri 05:41:09 PM 29.7069 -81.1017 182° South 440 506 27,500 -3,076 Descending Jacksonville Center
Fri 05:42:09 PM 29.5881 -81.1014 180° South 434 499 24,600 -2,950 Descending Jacksonville Center
Fri 05:43:09 PM 29.4647 -81.0942 177° South 421 484 21,600 -2,900 Descending Jacksonville Center
Fri 05:44:09 PM 29.3500 -81.0961 181° South 409 471 18,800 -2,750 Descending Jacksonville Center
Fri 05:45:09 PM 29.2414 -81.0886 177° South 397 457 16,100 -2,750 Descending Jacksonville Center
Fri 05:46:09 PM 29.1369 -81.0931 182° South 379 436 13,300 -2,000 Descending Jacksonville Center
Fri 05:47:09 PM 29.0389 -81.0900 178° South 360 414 12,100 -1,150 Descending Jacksonville Center
Fri 05:48:09 PM 28.9553 -81.0819 175° South 308 354 11,000 -1,350 Descending Jacksonville Center
Fri 05:49:09 PM 28.8758 -81.0692 172° South 303 349 9,400 -1,608 Descending Jacksonville Center
Fri 05:49:46 PM 28.8333 -81.0833 196° South 278 320 8,400 -1,856 Descending Orlando TRACON
Fri 05:50:46 PM 28.8000 -81.1500 240° Southwest 265 305 6,400 -2,000 Descending Orlando TRACON
Fri 05:51:52 PM 28.7333 -81.2167 221° Southwest 263 303 4,200 -1,238 Descending Orlando TRACON
Fri 05:52:52 PM 28.6833 -81.2500 210° Southwest 230 265 3,800 -550 Descending Orlando TRACON
Fri 05:53:52 PM 28.6167 -81.2667 192° South 208 239 3,100 -645 Descending Orlando TRACON
Fri 05:54:53 PM 28.5667 -81.2833 196° South 198 228 2,500 -650 Descending Orlando TRACON
Fri 05:55:52 PM 28.5167 -81.3000 196° South 170 196 1,800 -706 Descending Orlando TRACON
Fri 05:56:52 PM 28.4833 -81.3000 180° South 127 146 1,100 -645 Descending Orlando TRACON
Fri 05:57:53 PM 28.4500 -81.3000 180° South 125 144 500 -590 Descending Orlando TRACON
Fri 05:59:00 PM 28.4294 -81.3090 189° South  Level Estimated
Fri 06:06:00 PM 28.4294 -81.3090 189° South  Level Estimated
Fri 06:07:00 PM 28.4294 -81.3090 189° South  Level Estimated
Fri 06:08:00 PM 28.4294 -81.3090 189° South  Level Estimated
Fri 06:09:00 PM 28.4294 -81.3090 189° South  Level Estimated

Login

Don't have an account? Register now (free) for customized features, flight alerts, and more!